FL26 weather

Kitching Cove Seaplane Base
Port St Lucie, Florida, United States

Public forecast

Using degrees Fahrenheit for public forecast. Weather courtesy of forecast.io.

Closest aviation weather report (METAR) to Kitching Cove Seaplane Base

Closest report is Witham Field, 6.5 nm (12.1 km) SE. Retrieved 2019/10/23 10:47 UTC (34 minutes ago):

KSUA 231047Z VRB03KT 7SM CLR 25/22 A2999

Closest aviation forecast (TAF) to Kitching Cove Seaplane Base

Closest forecast is Witham Field, 6.5 nm (12.1 km) SE. Retrieved 2019/10/23 06:52 UTC (4 hours ago):

TAF KSUA 230549Z 2306/2406 31004KT P6SM FEW250 FM231400 03009KT P6SM SCT035 FM231700 04010KT P6SM VCSH BKN035 FM240100 03008KT P6SM VCSH BKN035